Time;durP1;ratioP1;P1;durP2;ratioP2;P2;SDS_P1;SDS_P2;PMS_P1;PMS_P2;Temp;Humidity;BMP_temperature;BMP_pressure;BME280_temperature;BME280_humidity;BME280_pressure;Samples;Min_cycle;Max_cycle;Signal;HPM_P1;HPM_P2
2021/06/07 00:01:59;;;;;;;7.10;2.67;;;14.40;79.50;;;;;;4951755;29;20035;-80
2021/06/07 00:04:26;;;;;;;7.15;2.92;;;14.40;79.50;;;;;;4940607;29;20078;-81
2021/06/07 00:06:52;;;;;;;4.55;2.72;;;14.30;80.20;;;;;;4940542;29;20456;-81
2021/06/07 00:09:18;;;;;;;6.50;3.80;;;14.30;79.70;;;;;;4940655;29;20075;-82
2021/06/07 00:11:50;;;;;;;9.02;3.25;;;14.20;79.80;;;;;;4959077;29;20027;-82
2021/06/07 00:14:21;;;;;;;7.60;3.58;;;14.20;79.90;;;;;;4943303;29;20058;-82
2021/06/07 00:16:47;;;;;;;8.13;3.75;;;14.20;80.00;;;;;;4940734;29;20027;-81
2021/06/07 00:19:16;;;;;;;6.55;2.95;;;14.20;80.10;;;;;;4956190;29;20023;-79
2021/06/07 00:21:43;;;;;;;6.38;2.90;;;14.10;80.10;;;;;;4940378;29;20460;-81
2021/06/07 00:24:13;;;;;;;7.28;3.22;;;14.10;80.20;;;;;;4957329;29;20472;-81
2021/06/07 00:26:38;;;;;;;6.75;3.00;;;14.10;80.30;;;;;;4940396;29;20028;-80
2021/06/07 00:29:06;;;;;;;6.93;3.03;;;14.00;80.30;;;;;;4939632;29;20023;-79
2021/06/07 00:31:31;;;;;;;8.32;4.35;;;14.00;80.30;;;;;;4940408;29;20023;-80
2021/06/07 00:33:57;;;;;;;6.90;3.30;;;14.00;80.40;;;;;;4940203;29;20122;-80
2021/06/07 00:36:23;;;;;;;6.75;3.40;;;14.00;80.30;;;;;;4940423;29;20023;-80
2021/06/07 00:38:50;;;;;;;9.02;3.83;;;14.00;80.40;;;;;;4942136;29;20020;-80
2021/06/07 00:41:16;;;;;;;8.48;3.33;;;14.00;80.30;;;;;;4945177;29;20115;-80
2021/06/07 00:43:42;;;;;;;5.72;3.40;;;14.00;80.30;;;;;;4943421;29;20031;-81
2021/06/07 00:46:08;;;;;;;7.75;3.88;;;14.00;80.20;;;;;;4946460;29;20424;-81
2021/06/07 00:48:37;;;;;;;6.80;3.47;;;13.90;80.20;;;;;;4944933;29;20023;-81
2021/06/07 00:51:09;;;;;;;6.03;2.72;;;13.80;80.20;;;;;;4946187;29;20144;-80
2021/06/07 00:53:35;;;;;;;7.22;3.72;;;13.90;80.30;;;;;;4957908;29;20039;-82
2021/06/07 00:56:04;;;;;;;7.03;3.78;;;13.80;80.20;;;;;;4939920;29;20020;-81
2021/06/07 00:58:33;;;;;;;5.80;3.10;;;13.80;80.30;;;;;;4939444;29;20109;-80
2021/06/07 01:01:00;;;;;;;5.50;2.97;;;13.80;80.30;;;;;;4957843;29;20066;-80
2021/06/07 01:03:27;;;;;;;4.90;2.50;;;13.80;80.30;;;;;;4939446;29;20084;-80
2021/06/07 01:05:54;;;;;;;7.85;3.30;;;13.70;80.30;;;;;;4939865;29;20055;-80
2021/06/07 01:08:21;;;;;;;5.80;3.20;;;13.70;80.20;;;;;;4940051;29;20114;-80
2021/06/07 01:10:47;;;;;;;5.72;3.08;;;13.70;80.10;;;;;;4939668;29;20050;-80
2021/06/07 01:13:14;;;;;;;8.75;3.47;;;13.70;79.90;;;;;;4939943;29;20110;-80
2021/06/07 01:15:41;;;;;;;9.35;4.03;;;13.70;80.00;;;;;;4942559;29;20507;-81
2021/06/07 01:18:07;;;;;;;5.20;2.58;;;13.70;79.90;;;;;;4969812;29;20054;-81
2021/06/07 01:20:33;;;;;;;6.63;2.95;;;13.70;80.00;;;;;;4950409;29;20027;-80
2021/06/07 01:22:58;;;;;;;6.22;3.05;;;13.60;80.30;;;;;;4951323;29;20100;-81
2021/06/07 01:25:27;;;;;;;5.88;2.90;;;13.60;80.70;;;;;;4960955;29;20031;-81
2021/06/07 01:27:54;;;;;;;4.82;2.85;;;13.60;80.60;;;;;;4940624;29;20019;-81
2021/06/07 01:30:24;;;;;;;9.63;3.08;;;13.60;80.70;;;;;;4939132;29;20058;-81
2021/06/07 01:32:50;;;;;;;6.45;2.80;;;13.50;80.40;;;;;;4938939;29;20035;-81
2021/06/07 01:35:16;;;;;;;5.50;2.97;;;13.50;80.80;;;;;;4938895;29;20036;-82
2021/06/07 01:37:43;;;;;;;5.75;2.63;;;13.50;80.80;;;;;;4939133;29;20030;-81
2021/06/07 01:40:13;;;;;;;7.05;2.78;;;13.40;80.50;;;;;;4938719;29;20061;-81
2021/06/07 01:42:39;;;;;;;;;;;13.40;80.50;;;;;;4938926;29;20082;-81
2021/06/07 01:45:07;;;;;;;4.05;2.28;;;13.40;80.60;;;;;;4938754;29;19910;-81
2021/06/07 01:47:33;;;;;;;6.35;2.40;;;13.30;80.20;;;;;;4938443;29;20027;-81
2021/06/07 01:49:58;;;;;;;5.22;2.15;;;13.30;80.10;;;;;;4938660;29;20118;-81
2021/06/07 01:52:24;;;;;;;6.57;2.80;;;13.30;80.10;;;;;;4938578;29;20031;-80
2021/06/07 01:54:50;;;;;;;6.82;3.13;;;13.30;80.00;;;;;;4938511;29;20403;-81
2021/06/07 01:57:16;;;;;;;3.42;1.80;;;13.30;79.60;;;;;;4931413;29;20079;-80
2021/06/07 01:59:42;;;;;;;4.25;2.33;;;13.30;79.60;;;;;;4919613;29;20024;-80
2021/06/07 02:02:07;;;;;;;7.85;3.03;;;13.30;79.70;;;;;;4919456;29;20027;-80
2021/06/07 02:04:34;;;;;;;3.90;2.30;;;13.30;79.70;;;;;;4946963;29;20032;-79
2021/06/07 02:07:01;;;;;;;5.25;2.20;;;13.30;79.10;;;;;;4935088;29;20465;-80
2021/06/07 02:09:27;;;;;;;5.97;2.45;;;13.30;78.90;;;;;;4920055;29;20019;-79
2021/06/07 02:11:52;;;;;;;5.35;2.17;;;13.30;78.80;;;;;;4919544;29;20042;-80
2021/06/07 02:14:18;;;;;;;3.78;1.90;;;13.30;78.70;;;;;;4918791;29;20126;-82
2021/06/07 02:16:44;;;;;;;3.85;1.92;;;13.30;78.50;;;;;;4918952;29;20055;-80
2021/06/07 02:19:10;;;;;;;4.85;2.85;;;13.30;79.10;;;;;;4919118;29;20031;-79
2021/06/07 02:21:37;;;;;;;6.07;2.55;;;13.30;78.70;;;;;;4918938;29;20032;-81
2021/06/07 02:24:05;;;;;;;6.75;2.15;;;13.30;78.70;;;;;;4918745;29;20035;-81
2021/06/07 02:26:31;;;;;;;6.40;2.30;;;13.30;78.40;;;;;;4934499;29;20031;-80
2021/06/07 02:29:06;;;;;;;6.40;2.63;;;13.20;78.50;;;;;;4919028;29;20031;-80
2021/06/07 02:31:33;;;;;;;5.53;2.20;;;13.20;78.30;;;;;;4936113;29;20027;-80
2021/06/07 02:34:00;;;;;;;6.90;2.65;;;13.10;78.30;;;;;;4935866;29;20055;-81
2021/06/07 02:36:29;;;;;;;5.95;2.22;;;13.10;78.60;;;;;;4918653;29;20032;-80
2021/06/07 02:38:56;;;;;;;5.72;2.30;;;13.10;78.70;;;;;;4918871;29;20027;-80
2021/06/07 02:41:23;;;;;;;6.32;3.05;;;13.10;78.90;;;;;;4918656;29;20034;-81
2021/06/07 02:43:49;;;;;;;4.43;2.60;;;13.10;79.20;;;;;;4918748;29;20036;-80
2021/06/07 02:46:16;;;;;;;5.25;2.67;;;13.00;79.20;;;;;;4918535;29;20094;-80
2021/06/07 02:48:42;;;;;;;5.22;2.53;;;13.10;79.20;;;;;;4935655;29;20028;-81
2021/06/07 02:51:08;;;;;;;7.30;3.40;;;13.10;79.20;;;;;;4924135;29;20110;-78
2021/06/07 02:53:34;;;;;;;5.22;2.95;;;13.00;79.30;;;;;;4919683;29;20119;-79
2021/06/07 02:56:00;;;;;;;4.30;2.50;;;13.00;79.40;;;;;;4925110;29;20091;-80
2021/06/07 02:58:25;;;;;;;6.68;2.70;;;13.00;80.10;;;;;;4935898;29;20106;-79
2021/06/07 03:00:57;;;;;;;6.32;2.67;;;13.00;79.80;;;;;;4938323;29;20038;-79
2021/06/07 03:03:23;;;;;;;7.60;3.38;;;12.90;79.70;;;;;;4953771;29;20122;-81
2021/06/07 03:05:50;;;;;;;4.50;2.45;;;12.90;80.00;;;;;;4937714;29;20027;-81
2021/06/07 03:08:19;;;;;;;4.40;2.25;;;12.90;80.10;;;;;;4937651;29;20039;-79
2021/06/07 03:10:51;;;;;;;3.78;2.13;;;12.90;80.10;;;;;;4956405;29;20443;-81
2021/06/07 03:13:19;;;;;;;6.40;3.00;;;13.00;80.70;;;;;;4944131;29;20036;-80
2021/06/07 03:15:44;;;;;;;5.18;2.65;;;13.00;80.30;;;;;;4959988;29;20023;-79
2021/06/07 03:18:11;;;;;;;6.43;3.08;;;13.00;80.10;;;;;;4951538;29;20483;-79
2021/06/07 03:20:37;;;;;;;4.88;2.80;;;13.00;80.50;;;;;;4951627;29;20030;-78
2021/06/07 03:23:10;;;;;;;4.93;2.20;;;13.00;80.50;;;;;;4956114;29;20028;-80
2021/06/07 03:25:36;;;;;;;5.63;2.80;;;13.10;80.70;;;;;;4962427;28;20740;-79
2021/06/07 03:28:04;;;;;;;6.78;2.97;;;13.00;80.40;;;;;;4938118;29;20027;-80
2021/06/07 03:30:30;;;;;;;6.65;2.70;;;13.00;80.60;;;;;;4937276;29;20027;-80
2021/06/07 03:32:55;;;;;;;5.95;3.17;;;13.00;80.30;;;;;;4937316;29;20578;-80
2021/06/07 03:35:21;;;;;;;4.75;2.53;;;13.00;80.20;;;;;;4954668;29;20028;-81
2021/06/07 03:37:47;;;;;;;5.75;2.83;;;13.00;80.30;;;;;;4955035;28;20038;-81
2021/06/07 03:40:23;;;;;;;8.02;3.75;;;13.00;80.30;;;;;;4941225;29;20082;-79
2021/06/07 03:42:49;;;;;;;6.40;3.67;;;13.00;80.50;;;;;;4940928;29;20110;-80
2021/06/07 03:45:16;;;;;;;4.43;2.22;;;13.00;80.30;;;;;;4958101;29;20051;-80
2021/06/07 03:47:43;;;;;;;5.75;2.45;;;13.00;80.50;;;;;;4941004;29;20071;-81
2021/06/07 03:50:10;;;;;;;4.93;2.67;;;13.00;80.70;;;;;;4940731;29;20031;-80
2021/06/07 03:52:37;;;;;;;7.18;3.22;;;13.10;80.90;;;;;;4958233;29;20380;-81
2021/06/07 03:55:05;;;;;;;7.38;2.97;;;13.10;80.30;;;;;;4940914;29;20080;-80
2021/06/07 03:57:30;;;;;;;6.18;2.47;;;13.10;80.00;;;;;;4940413;29;20051;-80
2021/06/07 03:59:56;;;;;;;6.13;2.97;;;13.20;80.00;;;;;;4940990;29;20037;-80
2021/06/07 04:02:22;;;;;;;6.03;2.83;;;13.20;80.20;;;;;;4940550;29;20066;-79
2021/06/07 04:04:48;;;;;;;5.78;2.58;;;13.20;79.80;;;;;;4940958;29;20357;-80
2021/06/07 04:07:13;;;;;;;4.30;2.72;;;13.20;79.80;;;;;;4941574;29;20073;-80
2021/06/07 04:09:42;;;;;;;3.95;2.13;;;13.30;79.60;;;;;;4951716;29;20022;-79
2021/06/07 04:12:08;;;;;;;6.65;3.03;;;13.30;79.70;;;;;;4955001;29;20019;-80
2021/06/07 04:14:34;;;;;;;8.50;3.28;;;13.30;79.60;;;;;;4941145;29;20118;-80
2021/06/07 04:17:00;;;;;;;4.72;2.10;;;13.40;79.40;;;;;;4958222;29;20102;-80
2021/06/07 04:19:26;;;;;;;5.72;2.20;;;13.40;79.10;;;;;;4940384;29;20190;-80
2021/06/07 04:21:54;;;;;;;7.13;2.70;;;13.50;79.10;;;;;;4940515;29;20026;-79
2021/06/07 04:24:20;;;;;;;4.50;2.28;;;13.50;78.70;;;;;;4942517;29;20038;-79
2021/06/07 04:26:46;;;;;;;9.52;3.70;;;13.60;78.40;;;;;;4961465;29;20027;-82
2021/06/07 04:29:11;;;;;;;4.43;2.28;;;13.60;78.60;;;;;;4940304;29;20034;-81
2021/06/07 04:31:37;;;;;;;8.88;3.20;;;13.60;78.30;;;;;;4940045;29;20114;-80
2021/06/07 04:34:03;;;;;;;5.53;2.70;;;13.60;78.10;;;;;;4940199;29;20086;-80
2021/06/07 04:36:28;;;;;;;10.80;3.30;;;13.60;78.10;;;;;;4939847;29;20105;-80
2021/06/07 04:38:54;;;;;;;4.60;2.95;;;13.70;78.00;;;;;;4940120;29;20023;-80
2021/06/07 04:41:20;;;;;;;6.13;3.00;;;13.70;77.90;;;;;;4939934;29;20023;-80
2021/06/07 04:43:45;;;;;;;8.02;3.42;;;13.80;77.70;;;;;;4939786;29;20059;-80
2021/06/07 04:46:11;;;;;;;8.10;2.97;;;13.80;77.60;;;;;;4940232;29;20027;-80
2021/06/07 04:48:37;;;;;;;4.20;2.45;;;13.90;77.40;;;;;;4939672;28;20483;-80
2021/06/07 04:51:03;;;;;;;6.38;3.22;;;13.90;77.60;;;;;;4939189;29;20031;-80
2021/06/07 04:53:29;;;;;;;5.50;2.67;;;13.90;77.00;;;;;;4942163;29;20038;-80
2021/06/07 04:55:55;;;;;;;3.25;2.00;;;13.90;76.80;;;;;;4963560;29;20027;-79
2021/06/07 04:58:27;;;;;;;6.65;2.35;;;14.00;77.10;;;;;;4959969;29;20494;-80
2021/06/07 05:01:05;;;;;;;5.03;2.08;;;14.00;76.90;;;;;;4965694;29;20031;-81
2021/06/07 05:03:31;;;;;;;4.20;1.88;;;14.00;77.30;;;;;;4948984;29;20038;-80
2021/06/07 05:05:58;;;;;;;4.47;2.17;;;14.10;78.00;;;;;;4947823;29;20102;-80
2021/06/07 05:08:25;;;;;;;3.88;2.13;;;14.10;77.40;;;;;;4941087;29;20028;-79
2021/06/07 05:10:51;;;;;;;5.07;2.28;;;14.20;77.20;;;;;;4939411;29;20019;-80
2021/06/07 05:13:17;;;;;;;3.58;2.00;;;14.30;76.70;;;;;;4939426;29;20155;-81
2021/06/07 05:15:43;;;;;;;4.45;1.95;;;14.30;75.90;;;;;;4941205;29;20027;-79
2021/06/07 05:18:09;;;;;;;2.95;2.05;;;14.50;75.60;;;;;;4975927;29;20043;-79
2021/06/07 05:20:35;;;;;;;2.78;1.77;;;14.50;75.70;;;;;;4944013;29;20015;-80
2021/06/07 05:23:03;;;;;;;6.22;2.47;;;14.60;75.10;;;;;;4961303;29;20042;-79
2021/06/07 05:25:30;;;;;;;5.43;2.20;;;14.70;74.50;;;;;;4940407;29;20024;-80
2021/06/07 05:27:59;;;;;;;3.97;1.85;;;14.80;74.50;;;;;;4939401;29;20035;-80
2021/06/07 05:30:27;;;;;;;6.72;1.92;;;14.90;74.10;;;;;;4938855;29;20051;-81
2021/06/07 05:32:56;;;;;;;2.97;1.65;;;15.00;74.10;;;;;;4938997;29;20465;-78
2021/06/07 05:35:24;;;;;;;3.55;1.95;;;15.10;74.30;;;;;;4939030;29;20098;-80
2021/06/07 05:37:50;;;;;;;6.03;2.05;;;15.20;74.70;;;;;;4939166;29;20078;-81
2021/06/07 05:40:18;;;;;;;4.32;1.65;;;15.20;73.90;;;;;;4943286;29;20503;-80
2021/06/07 05:42:45;;;;;;;6.68;1.92;;;15.30;73.60;;;;;;4956045;29;20020;-80
2021/06/07 05:45:12;;;;;;;3.60;1.88;;;15.40;72.60;;;;;;4938911;29;20027;-79
2021/06/07 05:47:39;;;;;;;2.42;1.40;;;15.50;72.40;;;;;;4938531;29;20019;-80
2021/06/07 05:50:07;;;;;;;3.40;1.23;;;15.70;72.90;;;;;;4939031;29;20031;-80
2021/06/07 05:52:33;;;;;;;5.63;1.70;;;15.80;72.20;;;;;;4938702;29;20118;-80
2021/06/07 05:54:59;;;;;;;6.00;1.45;;;15.90;72.10;;;;;;4939106;29;20178;-80
2021/06/07 05:57:24;;;;;;;4.68;1.40;;;16.00;71.60;;;;;;4956960;29;20091;-79
2021/06/07 05:59:50;;;;;;;3.53;1.27;;;16.10;71.90;;;;;;4944991;29;20027;-80
2021/06/07 06:02:16;;;;;;;2.67;1.10;;;16.20;70.50;;;;;;4941884;29;20031;-80
2021/06/07 06:04:42;;;;;;;5.15;1.20;;;16.30;70.40;;;;;;4939297;29;20062;-80
2021/06/07 06:07:08;;;;;;;2.20;1.20;;;16.50;69.70;;;;;;4938869;29;20066;-80
2021/06/07 06:09:34;;;;;;;2.17;1.20;;;16.60;69.30;;;;;;4938884;29;20059;-81
2021/06/07 06:12:00;;;;;;;2.25;1.10;;;16.70;69.70;;;;;;4945300;29;20038;-79
2021/06/07 06:14:26;;;;;;;3.55;1.30;;;16.70;68.60;;;;;;4952652;29;20041;-81
2021/06/07 06:16:53;;;;;;;5.07;1.30;;;16.90;68.30;;;;;;4951293;29;20583;-81
2021/06/07 06:19:18;;;;;;;3.35;1.23;;;17.00;66.80;;;;;;4957217;29;20034;-80
2021/06/07 06:21:44;;;;;;;2.13;0.77;;;17.10;66.20;;;;;;4938128;29;20420;-80
2021/06/07 06:24:11;;;;;;;2.92;1.20;;;17.20;68.30;;;;;;4938811;29;20027;-81
2021/06/07 06:26:38;;;;;;;2.53;0.93;;;17.20;68.70;;;;;;4937849;29;20122;-81
2021/06/07 06:29:05;;;;;;;2.83;1.02;;;17.30;67.80;;;;;;4938721;29;20023;-80
2021/06/07 06:31:31;;;;;;;2.22;0.60;;;17.40;66.30;;;;;;4938243;29;20034;-80
2021/06/07 06:33:56;;;;;;;1.15;0.55;;;17.50;66.80;;;;;;4955392;29;20398;-80
2021/06/07 06:36:22;;;;;;;1.70;0.65;;;17.60;66.90;;;;;;4938403;29;20023;-81
2021/06/07 06:38:48;;;;;;;2.22;0.90;;;17.70;67.00;;;;;;4937893;29;20080;-81
2021/06/07 06:41:13;;;;;;;1.90;0.75;;;17.80;65.10;;;;;;4954852;29;20043;-80
2021/06/07 06:43:39;;;;;;;2.70;0.68;;;17.90;64.70;;;;;;4937457;29;20023;-80
2021/06/07 06:46:06;;;;;;;2.30;0.60;;;18.00;64.30;;;;;;4937929;29;20456;-81
2021/06/07 06:48:34;;;;;;;3.78;1.00;;;18.10;65.00;;;;;;4937417;29;20047;-79
2021/06/07 06:51:00;;;;;;;2.22;0.63;;;18.20;62.30;;;;;;4938798;29;20046;-80
2021/06/07 06:53:26;;;;;;;2.28;0.85;;;18.30;63.70;;;;;;4944586;29;20162;-79
2021/06/07 06:55:53;;;;;;;3.38;0.80;;;18.40;61.00;;;;;;4946442;29;20476;-79
2021/06/07 06:58:19;;;;;;;1.95;0.90;;;18.50;59.80;;;;;;4963631;29;20121;-79
2021/06/07 07:00:45;;;;;;;0.80;0.50;;;18.70;61.30;;;;;;4961569;29;20149;-79
2021/06/07 07:03:14;;;;;;;1.65;0.70;;;18.80;63.10;;;;;;4941029;29;20532;-80
2021/06/07 07:05:40;;;;;;;3.42;0.70;;;18.90;59.70;;;;;;4961238;29;20062;-81
2021/06/07 07:08:06;;;;;;;2.85;1.15;;;19.00;61.60;;;;;;4938652;29;20119;-80
2021/06/07 07:10:33;;;;;;;5.85;0.80;;;19.00;62.10;;;;;;4937633;29;20113;-80
2021/06/07 07:12:59;;;;;;;2.47;1.23;;;19.10;59.90;;;;;;4938787;29;20027;-80
2021/06/07 07:15:25;;;;;;;3.35;0.90;;;19.20;60.60;;;;;;4944669;29;20037;-81
2021/06/07 07:17:51;;;;;;;2.72;0.77;;;19.40;59.30;;;;;;4978199;29;20038;-80
2021/06/07 07:20:16;;;;;;;3.58;1.15;;;19.40;59.60;;;;;;4949216;28;20024;-79
2021/06/07 07:22:42;;;;;;;2.85;0.95;;;19.50;57.60;;;;;;4960100;29;20095;-80
2021/06/07 07:25:10;;;;;;;3.83;0.70;;;19.60;57.10;;;;;;4958883;29;20023;-79
2021/06/07 07:27:37;;;;;;;2.60;0.70;;;19.80;57.70;;;;;;4941033;29;20031;-79
2021/06/07 07:30:09;;;;;;;1.33;0.50;;;19.90;55.90;;;;;;4943879;29;20031;-80
2021/06/07 07:32:36;;;;;;;3.35;0.80;;;20.10;56.20;;;;;;4941936;29;20141;-80
2021/06/07 07:35:02;;;;;;;3.13;1.35;;;20.30;57.10;;;;;;4941249;29;20043;-80
2021/06/07 07:37:27;;;;;;;2.75;0.80;;;20.40;55.90;;;;;;4940997;29;20071;-77
2021/06/07 07:39:53;;;;;;;2.40;0.80;;;20.40;54.70;;;;;;4940721;29;20338;-78
2021/06/07 07:42:19;;;;;;;3.72;0.93;;;20.50;52.00;;;;;;4940963;29;20065;-80
2021/06/07 07:44:44;;;;;;;5.00;0.90;;;20.60;58.50;;;;;;4940927;29;20101;-79
2021/06/07 07:47:10;;;;;;;4.00;0.93;;;20.70;57.10;;;;;;4940858;29;20440;-79
2021/06/07 07:49:36;;;;;;;5.70;1.17;;;20.80;56.90;;;;;;4940662;29;20027;-78
2021/06/07 07:52:03;;;;;;;2.08;0.80;;;21.00;53.90;;;;;;4940993;29;20376;-80
2021/06/07 07:54:31;;;;;;;3.50;1.08;;;21.10;55.20;;;;;;4940601;29;20039;-79
2021/06/07 07:56:57;;;;;;;2.78;0.73;;;21.20;54.20;;;;;;4957790;29;20503;-79
2021/06/07 07:59:22;;;;;;;2.58;0.60;;;21.30;56.90;;;;;;4940822;29;20020;-79
2021/06/07 08:01:48;;;;;;;2.47;0.90;;;21.40;57.90;;;;;;4940243;29;20038;-79
2021/06/07 08:04:14;;;;;;;1.75;0.77;;;21.50;57.40;;;;;;4940338;29;20030;-79
2021/06/07 08:06:40;;;;;;;5.80;1.20;;;21.40;53.00;;;;;;4940536;29;20024;-79
2021/06/07 08:09:06;;;;;;;5.70;1.08;;;21.50;56.40;;;;;;4941108;29;20034;-79
2021/06/07 08:11:32;;;;;;;4.88;1.30;;;21.60;55.00;;;;;;4940161;29;20027;-80
2021/06/07 08:13:57;;;;;;;2.95;0.85;;;21.70;53.60;;;;;;4940700;29;20038;-80
2021/06/07 08:16:23;;;;;;;3.80;0.88;;;21.80;55.70;;;;;;4957338;29;20033;-79
2021/06/07 08:18:48;;;;;;;2.72;1.00;;;21.80;57.10;;;;;;4949952;29;20019;-79
2021/06/07 08:21:14;;;;;;;2.72;0.95;;;21.80;57.00;;;;;;4957890;29;20118;-77
2021/06/07 08:23:40;;;;;;;3.80;1.23;;;21.80;56.10;;;;;;4957690;28;20413;-79
2021/06/07 08:26:06;;;;;;;2.97;0.80;;;21.90;54.70;;;;;;4939586;29;20042;-79
2021/06/07 08:28:32;;;;;;;1.60;0.90;;;22.00;55.40;;;;;;4957128;29;20023;-78
2021/06/07 08:30:58;;;;;;;3.72;1.48;;;21.90;53.40;;;;;;4939858;29;20055;-79
2021/06/07 08:33:23;;;;;;;2.53;1.00;;;22.00;52.00;;;;;;4939792;29;20536;-78
2021/06/07 08:35:49;;;;;;;3.35;0.82;;;22.20;51.40;;;;;;4941009;29;20043;-77
2021/06/07 08:38:15;;;;;;;2.30;0.73;;;22.30;54.30;;;;;;4961858;29;20106;-78
2021/06/07 08:40:40;;;;;;;3.28;1.00;;;22.40;52.50;;;;;;4961846;29;20468;-77
2021/06/07 08:43:06;;;;;;;3.00;1.00;;;22.50;48.10;;;;;;4958104;29;20121;-76
2021/06/07 08:45:32;;;;;;;3.25;0.73;;;22.50;51.10;;;;;;4941320;29;20380;-77
2021/06/07 08:47:58;;;;;;;4.13;1.10;;;22.60;56.40;;;;;;4945152;29;20027;-76
2021/06/07 08:50:27;;;;;;;2.03;0.70;;;22.60;50.60;;;;;;4961485;29;20030;-77
2021/06/07 08:52:53;;;;;;;2.38;0.60;;;22.70;50.40;;;;;;4939810;29;20090;-78
2021/06/07 08:55:22;;;;;;;1.65;0.70;;;22.80;56.20;;;;;;4939611;29;20024;-78
2021/06/07 08:57:50;;;;;;;8.00;1.10;;;23.00;55.30;;;;;;4939136;29;20552;-77
2021/06/07 09:00:23;;;;;;;2.08;0.80;;;23.20;46.20;;;;;;4957011;29;20031;-77
2021/06/07 09:02:50;;;;;;;1.40;0.60;;;23.30;54.90;;;;;;4958786;29;20024;-76
2021/06/07 09:05:18;;;;;;;3.22;1.13;;;23.30;50.50;;;;;;4944203;29;20083;-77
2021/06/07 09:07:54;;;;;;;2.33;0.70;;;23.20;52.10;;;;;;4941122;29;20054;-76
2021/06/07 09:10:20;;;;;;;2.53;0.70;;;23.30;48.60;;;;;;4944625;29;20027;-76
2021/06/07 09:12:50;;;;;;;3.33;0.65;;;23.30;53.30;;;;;;4957478;29;20032;-77
2021/06/07 09:15:31;;;;;;;3.88;1.13;;;23.20;54.50;;;;;;4966533;29;20011;-77
2021/06/07 09:17:58;;;;;;;4.40;1.15;;;23.30;55.10;;;;;;4949954;29;20054;-77
2021/06/07 09:20:26;;;;;;;3.63;0.80;;;23.30;56.40;;;;;;4957494;29;20039;-75
2021/06/07 09:22:55;;;;;;;2.47;0.80;;;23.40;55.20;;;;;;4957573;29;20115;-77
2021/06/07 09:25:28;;;;;;;2.95;0.95;;;23.60;51.60;;;;;;4939071;29;20024;-78
2021/06/07 09:28:08;;;;;;;4.15;0.98;;;23.70;52.40;;;;;;4956014;29;20030;-78
2021/06/07 09:30:58;;;;;;;1.95;0.73;;;23.80;55.60;;;;;;4938778;29;20023;-78
2021/06/07 09:33:33;;;;;;;2.47;0.90;;;24.00;55.00;;;;;;4946414;28;20514;-77
2021/06/07 09:36:21;;;;;;;1.95;0.73;;;24.10;52.60;;;;;;4955330;28;20015;-77
2021/06/07 09:39:09;;;;;;;5.05;0.98;;;24.20;49.40;;;;;;4955704;29;20091;-78
2021/06/07 09:41:54;;;;;;;1.02;0.50;;;24.50;49.60;;;;;;4954490;29;20025;-78
2021/06/07 09:44:28;;;;;;;5.28;1.30;;;24.60;54.30;;;;;;4938643;29;20166;-77
2021/06/07 09:47:07;;;;;;;2.33;0.80;;;24.80;48.30;;;;;;4938770;29;20042;-76
2021/06/07 09:49:42;;;;;;;3.30;1.20;;;24.80;53.30;;;;;;4955883;29;20059;-78
2021/06/07 09:52:10;;;;;;;2.05;0.60;;;24.80;47.90;;;;;;4955933;29;20063;-77
2021/06/07 09:54:36;;;;;;;4.28;0.98;;;24.80;50.30;;;;;;4938832;29;20038;-78
2021/06/07 09:57:02;;;;;;;2.08;0.60;;;24.90;52.70;;;;;;4955468;29;20047;-79
2021/06/07 09:59:32;;;;;;;1.95;0.90;;;25.00;54.60;;;;;;4954584;29;20179;-79
2021/06/07 10:01:59;;;;;;;2.20;1.27;;;25.10;50.80;;;;;;4937948;29;20039;-78
2021/06/07 10:04:50;;;;;;;3.80;1.05;;;25.00;48.50;;;;;;4938414;29;20436;-77
2021/06/07 10:07:16;;;;;;;4.22;1.00;;;25.10;44.00;;;;;;4938458;29;20019;-78
2021/06/07 10:10:09;;;;;;;4.43;1.13;;;25.20;53.30;;;;;;4938143;29;20023;-76
2021/06/07 10:12:35;;;;;;;3.78;1.23;;;25.30;49.00;;;;;;4955885;29;20031;-78
2021/06/07 10:15:01;;;;;;;3.10;1.10;;;25.20;50.10;;;;;;4938179;29;20476;-77
2021/06/07 10:17:26;;;;;;;3.22;1.52;;;25.10;51.00;;;;;;4955791;29;20123;-78
2021/06/07 10:22:37;;;;;;;2.90;1.00;;;25.30;49.60;;;;;;4963313;29;20019;-77
2021/06/07 10:25:07;;;;;;;3.13;0.90;;;25.40;52.20;;;;;;4974140;29;20019;-77
2021/06/07 10:27:34;;;;;;;2.67;0.77;;;25.50;49.40;;;;;;4941195;29;20030;-77
2021/06/07 10:30:01;;;;;;;3.22;0.90;;;25.80;53.20;;;;;;4955060;29;20027;-77
2021/06/07 10:32:29;;;;;;;2.58;1.05;;;26.00;55.00;;;;;;4954851;29;20106;-77
2021/06/07 10:35:01;;;;;;;2.97;1.15;;;26.10;50.40;;;;;;4953780;29;20126;-77
2021/06/07 10:37:28;;;;;;;4.22;1.10;;;26.10;54.00;;;;;;4938501;29;20027;-77
2021/06/07 10:40:19;;;;;;;4.43;1.10;;;26.20;48.90;;;;;;4961240;29;20038;-77
2021/06/07 10:42:58;;;;;;;3.05;1.25;;;26.30;50.20;;;;;;4941273;29;20026;-77
2021/06/07 10:45:27;;;;;;;3.63;0.95;;;26.40;52.90;;;;;;4938094;29;20099;-77
2021/06/07 10:47:53;;;;;;;2.22;0.90;;;26.50;49.20;;;;;;4953858;29;20035;-78
2021/06/07 10:50:25;;;;;;;4.10;1.38;;;26.50;49.10;;;;;;4954982;29;20027;-77
2021/06/07 10:53:01;;;;;;;1.52;0.85;;;26.60;46.50;;;;;;4937492;29;20027;-77
2021/06/07 10:55:37;;;;;;;4.28;1.30;;;26.70;50.90;;;;;;4954917;29;20083;-77
2021/06/07 10:58:07;;;;;;;1.58;0.82;;;26.90;45.00;;;;;;4937255;29;20382;-78
2021/06/07 11:00:44;;;;;;;3.70;1.02;;;27.00;51.50;;;;;;4937923;29;20388;-78
2021/06/07 11:03:22;;;;;;;3.75;1.13;;;27.10;50.50;;;;;;4954948;29;20106;-77
2021/06/07 11:05:54;;;;;;;4.18;0.95;;;27.00;50.80;;;;;;4954941;29;20357;-77
2021/06/07 11:08:26;;;;;;;3.10;1.25;;;26.90;42.70;;;;;;4940364;29;20432;-77
2021/06/07 11:11:21;;;;;;;1.80;0.82;;;26.80;51.30;;;;;;4941798;29;20110;-78
2021/06/07 11:14:00;;;;;;;3.20;1.05;;;26.80;48.70;;;;;;4944515;29;20042;-77
2021/06/07 11:16:27;;;;;;;1.88;0.82;;;26.90;48.30;;;;;;4947062;29;20023;-77
2021/06/07 11:19:04;;;;;;;3.28;1.10;;;26.80;53.60;;;;;;4962126;29;20054;-77
2021/06/07 11:21:34;;;;;;;1.65;0.90;;;27.00;48.30;;;;;;4960987;29;20059;-78
2021/06/07 11:24:00;;;;;;;3.15;0.80;;;27.10;53.60;;;;;;4938290;29;20063;-77
2021/06/07 11:26:40;;;;;;;1.38;0.90;;;27.20;53.50;;;;;;4954690;29;20412;-77
2021/06/07 11:29:12;;;;;;;2.80;1.08;;;27.40;52.80;;;;;;4937202;29;20028;-78
2021/06/07 11:31:40;;;;;;;3.63;1.23;;;27.40;46.20;;;;;;4937461;29;20384;-77
2021/06/07 11:34:11;;;;;;;3.88;1.15;;;27.40;41.10;;;;;;4937166;29;20105;-77
2021/06/07 11:36:49;;;;;;;1.65;0.63;;;27.40;41.30;;;;;;4937183;29;20030;-76
2021/06/07 11:39:17;;;;;;;5.65;0.90;;;27.60;50.20;;;;;;4937169;29;20123;-76
2021/06/07 11:41:59;;;;;;;3.58;0.93;;;27.70;49.00;;;;;;4953992;29;20388;-77
2021/06/07 11:44:45;;;;;;;3.00;0.70;;;27.80;47.80;;;;;;4954387;29;20472;-76
2021/06/07 11:47:15;;;;;;;2.25;0.70;;;27.70;49.00;;;;;;4954017;29;20380;-75
2021/06/07 11:49:55;;;;;;;1.60;0.70;;;27.50;51.80;;;;;;4953994;29;20387;-75
2021/06/07 11:52:56;;;;;;;5.88;1.63;;;27.50;54.00;;;;;;4937059;29;20115;-76
2021/06/07 11:55:33;;;;;;;2.17;0.90;;;27.60;50.80;;;;;;4954232;29;20051;-76
2021/06/07 11:58:13;;;;;;;2.70;1.05;;;27.60;51.30;;;;;;4953791;29;20377;-76
2021/06/07 12:01:04;;;;;;;2.30;0.80;;;27.60;45.70;;;;;;4957604;29;20020;-76
2021/06/07 12:03:31;;;;;;;1.80;0.82;;;27.60;53.10;;;;;;4957663;29;20027;-76
2021/06/07 12:05:57;;;;;;;4.25;1.30;;;27.70;51.30;;;;;;4940155;29;20027;-76
2021/06/07 12:08:25;;;;;;;2.00;0.80;;;27.80;42.80;;;;;;4957444;29;20074;-76
2021/06/07 12:11:02;;;;;;;3.03;1.38;;;28.00;45.00;;;;;;4940263;29;20380;-76
2021/06/07 12:13:35;;;;;;;5.72;1.13;;;28.20;44.00;;;;;;4957457;29;20460;-76
2021/06/07 12:16:15;;;;;;;1.90;0.77;;;28.20;44.50;;;;;;4939697;29;20110;-75
2021/06/07 12:18:42;;;;;;;;;;;28.20;50.70;;;;;;4940342;29;20452;-75
2021/06/07 12:21:10;;;;;;;1.92;0.80;;;28.30;46.70;;;;;;4957761;29;19935;-77
2021/06/07 12:23:42;;;;;;;2.65;0.85;;;28.20;48.00;;;;;;4941150;29;20043;-78
2021/06/07 12:29:42;;;;;;;3.10;1.00;;;28.50;50.30;;;;;;4967116;29;20079;-79
2021/06/07 12:32:15;;;;;;;2.90;0.85;;;28.50;48.70;;;;;;4940796;29;20035;-78
2021/06/07 12:35:11;;;;;;;3.08;1.05;;;28.60;51.20;;;;;;4927009;29;20051;-80
2021/06/07 12:37:41;;;;;;;3.03;1.00;;;28.70;39.70;;;;;;4921004;29;20465;-77
2021/06/07 12:40:34;;;;;;;4.60;0.95;;;28.60;50.00;;;;;;4937232;29;20034;-78
2021/06/07 12:43:06;;;;;;;4.68;1.05;;;28.60;45.30;;;;;;4921022;29;20024;-77
2021/06/07 12:45:36;;;;;;;2.15;0.80;;;28.50;45.60;;;;;;4938622;29;20146;-76
2021/06/07 12:48:29;;;;;;;6.05;1.02;;;28.50;48.80;;;;;;4921621;29;20028;-77
2021/06/07 12:51:13;;;;;;;1.20;0.70;;;28.80;52.80;;;;;;4886728;29;20042;-76
2021/06/07 12:53:45;;;;;;;2.70;1.10;;;28.90;50.90;;;;;;4921802;29;20541;-76
2021/06/07 12:56:20;;;;;;;1.27;0.63;;;28.80;44.30;;;;;;4921349;29;20028;-77
2021/06/07 12:58:59;;;;;;;1.75;0.60;;;28.70;50.90;;;;;;4935971;29;20075;-78
2021/06/07 13:01:37;;;;;;;3.47;0.77;;;28.70;52.60;;;;;;4936797;29;20016;-77
2021/06/07 13:04:03;;;;;;;1.70;0.80;;;28.80;43.70;;;;;;4951982;29;20059;-79